createdAt,value
2018-08-22T00:04:06.530Z,17.70
2018-08-22T00:09:07.398Z,17.70
2018-08-22T00:14:02.314Z,17.80
2018-08-22T00:18:56.924Z,17.80
2018-08-22T00:23:50.767Z,17.70
2018-08-22T00:28:45.939Z,17.70
2018-08-22T00:33:41.960Z,17.60
2018-08-22T00:38:35.671Z,17.40
2018-08-22T00:43:30.613Z,17.20
2018-08-22T00:48:24.284Z,17.20
2018-08-22T00:53:18.094Z,17.20
2018-08-22T00:58:12.784Z,17.30
2018-08-22T01:03:07.191Z,17.30
2018-08-22T01:08:17.140Z,17.30
2018-08-22T01:13:11.829Z,17.30
2018-08-22T01:18:05.949Z,17.10
2018-08-22T01:23:00.843Z,17.10
2018-08-22T01:27:55.394Z,17.10
2018-08-22T01:32:49.439Z,17.10
2018-08-22T01:37:43.531Z,16.90
2018-08-22T01:42:37.260Z,16.90
2018-08-22T01:47:31.436Z,16.90
2018-08-22T01:52:25.263Z,16.80
2018-08-22T01:57:19.629Z,16.90
2018-08-22T02:02:19.220Z,16.80
2018-08-22T02:07:13.203Z,16.70
2018-08-22T02:12:08.102Z,16.70
2018-08-22T02:17:04.642Z,16.70
2018-08-22T02:21:58.676Z,16.80
2018-08-22T02:26:53.291Z,16.70
2018-08-22T02:31:48.093Z,16.70
2018-08-22T02:36:42.440Z,16.70
2018-08-22T02:41:36.776Z,16.60
2018-08-22T02:46:30.887Z,16.70
2018-08-22T02:51:25.601Z,16.70
2018-08-22T02:56:27.539Z,16.70
2018-08-22T03:01:21.579Z,16.50
2018-08-22T03:06:15.389Z,16.50
2018-08-22T03:11:11.646Z,16.40
2018-08-22T03:16:07.549Z,16.40
2018-08-22T03:21:02.686Z,16.40
2018-08-22T03:25:56.556Z,16.40
2018-08-22T03:30:50.773Z,16.30
2018-08-22T03:35:45.127Z,16.30
2018-08-22T03:40:39.512Z,16.20
2018-08-22T03:45:33.786Z,16.20
2018-08-22T03:50:28.083Z,16.30
2018-08-22T03:55:22.410Z,16.40
2018-08-22T04:00:17.277Z,16.50
2018-08-22T04:05:12.343Z,16.40
2018-08-22T04:10:08.447Z,16.40
2018-08-22T04:15:02.926Z,16.50
2018-08-22T04:19:58.593Z,16.50
2018-08-22T04:24:52.506Z,16.60
2018-08-22T04:29:47.449Z,16.60
2018-08-22T04:34:42.211Z,16.70
2018-08-22T04:39:37.782Z,16.70
2018-08-22T04:44:32.176Z,16.80
2018-08-22T04:49:28.897Z,17.10
2018-08-22T04:54:24.090Z,17.70
2018-08-22T04:59:19.045Z,18.40
2018-08-22T05:04:13.547Z,18.70
2018-08-22T05:09:09.158Z,18.60
2018-08-22T05:14:05.759Z,18.80
2018-08-22T05:19:01.061Z,19.30
2018-08-22T05:24:11.330Z,19.50
2018-08-22T05:29:21.204Z,19.80
2018-08-22T05:34:15.542Z,19.70
2018-08-22T05:39:12.803Z,19.80
2018-08-22T05:44:07.617Z,19.90
2018-08-22T05:49:02.572Z,19.60
2018-08-22T05:53:57.025Z,19.80
2018-08-22T05:58:59.710Z,20.00
2018-08-22T06:04:02.221Z,20.00
2018-08-22T06:09:05.806Z,19.90
2018-08-22T06:14:07.734Z,20.40
2018-08-22T06:19:09.420Z,20.50
2018-08-22T06:24:08.453Z,20.70
2018-08-22T06:29:03.705Z,20.70
2018-08-22T06:33:59.312Z,20.60
2018-08-22T06:38:54.486Z,20.60
2018-08-22T06:43:50.129Z,20.60
2018-08-22T06:48:44.040Z,20.60
2018-08-22T06:53:39.631Z,20.70
2018-08-22T06:58:37.019Z,20.90
2018-08-22T07:03:31.100Z,21.10
2018-08-22T07:08:28.416Z,21.00
2018-08-22T07:13:22.439Z,21.70
2018-08-22T07:18:17.282Z,22.40
2018-08-22T07:23:12.406Z,23.30
2018-08-22T07:28:07.584Z,23.90
2018-08-22T07:33:03.492Z,26.00
2018-08-22T07:37:58.685Z,28.60
2018-08-22T07:43:17.261Z,29.90
2018-08-22T07:48:25.860Z,31.30
2018-08-22T07:53:21.860Z,30.80
2018-08-22T07:58:16.934Z,29.70
2018-08-22T08:03:11.713Z,28.40
2018-08-22T08:08:06.320Z,27.70
2018-08-22T08:13:00.798Z,27.80
2018-08-22T08:17:56.786Z,28.10
2018-08-22T08:22:50.882Z,29.30
2018-08-22T08:27:45.433Z,30.40
2018-08-22T08:32:41.754Z,31.70
2018-08-22T08:37:35.876Z,33.40
2018-08-22T08:42:31.247Z,35.00
2018-08-22T08:47:33.935Z,35.80
2018-08-22T08:52:35.907Z,36.90
2018-08-22T08:57:30.369Z,38.70
2018-08-22T09:02:24.968Z,39.80
2018-08-22T09:07:20.229Z,38.90
2018-08-22T09:12:14.727Z,38.50
2018-08-22T09:17:09.742Z,37.60
2018-08-22T09:22:06.867Z,39.30
2018-08-22T09:27:05.366Z,40.90
2018-08-22T09:32:04.314Z,37.80
2018-08-22T09:37:00.090Z,36.40
2018-08-22T09:41:56.689Z,38.50
2018-08-22T09:46:54.716Z,37.60
2018-08-22T09:51:49.878Z,37.00
2018-08-22T09:56:44.611Z,39.20
2018-08-22T10:01:42.677Z,40.70
2018-08-22T10:06:39.611Z,41.40
2018-08-22T10:11:33.850Z,42.00
2018-08-22T10:16:28.854Z,40.80
2018-08-22T10:21:24.555Z,41.30
2018-08-22T10:26:20.088Z,43.60
2018-08-22T10:31:14.392Z,45.20
2018-08-22T10:36:09.075Z,45.40
2018-08-22T10:41:04.959Z,45.20
2018-08-22T10:46:00.928Z,43.40
2018-08-22T10:50:55.614Z,42.20
2018-08-22T10:55:51.698Z,42.50
2018-08-22T11:00:48.082Z,43.30
2018-08-22T11:05:44.248Z,40.90
2018-08-22T11:10:40.042Z,43.50
2018-08-22T11:15:34.906Z,39.70
2018-08-22T11:20:30.910Z,38.40
2018-08-22T11:25:35.988Z,36.60
2018-08-22T11:30:41.384Z,36.30
2018-08-22T11:35:33.887Z,35.90
2018-08-22T11:40:29.166Z,35.30
2018-08-22T11:45:26.079Z,34.90
2018-08-22T11:50:20.857Z,34.30
2018-08-22T11:55:16.058Z,34.20
2018-08-22T12:00:12.050Z,34.20
2018-08-22T12:05:06.787Z,33.80
2018-08-22T12:10:01.503Z,33.70
2018-08-22T12:14:56.072Z,33.90
2018-08-22T12:19:52.048Z,34.00
2018-08-22T12:24:47.485Z,33.70
2018-08-22T12:29:49.279Z,33.40
2018-08-22T12:34:51.028Z,32.60
2018-08-22T12:39:52.808Z,32.60
2018-08-22T12:44:55.904Z,32.20
2018-08-22T12:49:51.530Z,31.90
2018-08-22T12:54:50.224Z,31.80
2018-08-22T12:59:44.367Z,31.60
2018-08-22T13:04:38.963Z,32.00
2018-08-22T13:09:32.851Z,31.50
2018-08-22T13:14:27.316Z,31.50
2018-08-22T13:19:22.483Z,31.90
2018-08-22T13:24:17.189Z,31.60
2018-08-22T13:29:11.364Z,31.40
2018-08-22T13:34:06.279Z,31.20
2018-08-22T13:39:01.525Z,31.50
2018-08-22T13:43:56.241Z,31.50
2018-08-22T13:48:52.434Z,31.70
2018-08-22T13:53:46.292Z,31.50
2018-08-22T13:58:40.385Z,31.50
2018-08-22T14:03:34.922Z,31.40
2018-08-22T14:08:29.725Z,31.30
2018-08-22T14:13:24.395Z,31.30
2018-08-22T14:18:20.229Z,31.40
2018-08-22T14:23:15.281Z,31.00
2018-08-22T14:28:09.687Z,31.00
2018-08-22T14:33:05.266Z,31.30
2018-08-22T14:38:00.927Z,31.00
2018-08-22T14:42:57.240Z,31.10
2018-08-22T14:47:52.028Z,30.90
2018-08-22T14:52:46.973Z,30.60
2018-08-22T14:57:42.183Z,30.80
2018-08-22T15:02:41.397Z,30.60
2018-08-22T15:07:37.448Z,30.60
2018-08-22T15:12:31.622Z,30.60
2018-08-22T15:17:25.800Z,30.60
2018-08-22T15:22:20.230Z,30.60
2018-08-22T15:27:15.393Z,30.60
2018-08-22T15:32:11.180Z,30.60
2018-08-22T15:37:07.054Z,30.50
2018-08-22T15:42:05.385Z,30.40
2018-08-22T15:47:00.840Z,30.20
2018-08-22T15:51:55.073Z,30.10
2018-08-22T15:56:49.650Z,30.10
2018-08-22T16:01:44.743Z,30.00
2018-08-22T16:06:39.426Z,30.00
2018-08-22T16:11:33.690Z,29.90
2018-08-22T16:16:30.011Z,29.80
2018-08-22T16:21:26.656Z,29.60
2018-08-22T16:26:22.739Z,29.60
2018-08-22T16:31:17.003Z,29.40
2018-08-22T16:36:16.841Z,29.30
2018-08-22T16:41:10.964Z,29.10
2018-08-22T16:46:14.559Z,29.10
2018-08-22T16:51:08.637Z,29.00
2018-08-22T16:56:04.748Z,28.90
2018-08-22T17:00:59.656Z,28.70
2018-08-22T17:06:03.533Z,28.70
2018-08-22T17:11:03.754Z,28.60
2018-08-22T17:15:59.394Z,28.50
2018-08-22T17:20:55.008Z,28.30
2018-08-22T17:25:51.790Z,28.20
2018-08-22T17:30:47.126Z,28.00
2018-08-22T17:35:43.660Z,27.90
2018-08-22T17:40:37.540Z,27.80
2018-08-22T17:45:35.191Z,27.70
2018-08-22T17:50:29.813Z,27.50
2018-08-22T17:55:23.876Z,27.40
2018-08-22T18:00:18.296Z,27.30
2018-08-22T18:05:12.242Z,27.20
2018-08-22T18:10:06.790Z,27.00
2018-08-22T18:15:03.826Z,26.90
2018-08-22T18:19:58.039Z,26.70
2018-08-22T18:24:55.927Z,26.60
2018-08-22T18:29:50.527Z,26.40
2018-08-22T18:35:08.909Z,26.20
2018-08-22T18:40:16.975Z,26.10
2018-08-22T18:45:11.866Z,26.00
2018-08-22T18:50:07.039Z,25.90
2018-08-22T18:55:02.589Z,25.70
2018-08-22T18:59:56.902Z,25.50
2018-08-22T19:04:53.642Z,25.40
2018-08-22T19:09:47.809Z,25.30
2018-08-22T19:14:49.764Z,25.30
2018-08-22T19:19:48.840Z,25.20
2018-08-22T19:24:56.937Z,25.10
2018-08-22T19:29:51.319Z,25.00
2018-08-22T19:34:45.958Z,24.90
2018-08-22T19:39:48.893Z,24.80
2018-08-22T19:44:44.258Z,24.70
2018-08-22T19:49:38.526Z,24.50
2018-08-22T19:54:33.042Z,24.40
2018-08-22T19:59:27.424Z,24.20
2018-08-22T20:04:22.416Z,24.00
2018-08-22T20:09:17.632Z,23.80
2018-08-22T20:14:11.808Z,23.60
2018-08-22T20:19:07.279Z,23.50
2018-08-22T20:24:03.565Z,23.40
2018-08-22T20:28:58.813Z,23.30
2018-08-22T20:34:12.143Z,23.20
2018-08-22T20:39:09.884Z,23.10
2018-08-22T20:44:14.402Z,23.00
2018-08-22T20:49:08.757Z,22.80
2018-08-22T20:54:10.053Z,22.70
2018-08-22T20:59:04.458Z,22.60
2018-08-22T21:04:03.589Z,22.50
2018-08-22T21:09:00.321Z,22.50
2018-08-22T21:13:59.076Z,22.40
2018-08-22T21:18:54.272Z,22.30
2018-08-22T21:23:50.263Z,22.20
2018-08-22T21:28:46.884Z,22.10
2018-08-22T21:33:44.182Z,22.00
2018-08-22T21:38:40.194Z,22.00
2018-08-22T21:43:35.285Z,21.90
2018-08-22T21:48:29.768Z,21.90
2018-08-22T21:53:24.933Z,21.90
2018-08-22T21:58:19.946Z,21.90
2018-08-22T22:03:15.078Z,21.80
2018-08-22T22:08:09.890Z,21.70
2018-08-22T22:13:05.347Z,21.60
2018-08-22T22:17:59.636Z,21.60
2018-08-22T22:22:53.974Z,21.50
2018-08-22T22:27:47.982Z,21.50
2018-08-22T22:32:50.282Z,21.40
2018-08-22T22:37:53.251Z,21.30
2018-08-22T22:42:47.477Z,21.20
2018-08-22T22:47:42.187Z,21.20
2018-08-22T22:52:40.072Z,21.10
2018-08-22T22:57:36.303Z,21.00
2018-08-22T23:02:32.082Z,21.00
2018-08-22T23:07:29.833Z,20.90
2018-08-22T23:12:34.163Z,20.90
2018-08-22T23:17:28.479Z,20.80
2018-08-22T23:22:22.647Z,20.70
2018-08-22T23:27:16.979Z,20.60
2018-08-22T23:32:12.336Z,20.50
2018-08-22T23:37:08.402Z,20.40
2018-08-22T23:42:07.807Z,20.40
2018-08-22T23:47:04.926Z,20.40
2018-08-22T23:52:04.558Z,20.30
2018-08-22T23:57:04.691Z,20.30
